Kevil, Kentucky
Current Conditions -  °F | °C
As of 5:53 AM on Saturday 20 Dec 2014 (Local Time) from KPAH Reporting Station
Overcast Overcast  
Wind Chill: 35°   Ceiling: 5500
Heat Index: 35°   Visibility: 10mi
Dew Point: 27°   Wind: 3mph
Humidity: 72%   Direction: 70°ENE
Pressure: 30.26"   Gusts: NA
Location:  37.09°N, 88.89°W
Report Text: KPAH 201153Z 07003KT 10SM OVC055 02/M03 A3026 RMK AO2 SLP250 T00171028 10017 20011 53002
Loading
Personal Weather Stations






























Interactive Weather Map New forecast layout! Learn more

10-Day Weather Forecast

Advertisements
Track Severe Weather on mobile